Terminal Aerodrome Forecast
Issued by NWS

Home | Current Version | Previous Version | Text Only | Print | Product List | Glossary On
Versions: 1 2 3 4 5 6 7 8 9 10 11 12 13
000
FTUS42 KTBW 250534
TAFRSW
TAF
KRSW 250534Z 2506/2606 09005KT P6SM FEW040
     FM251400 08009KT P6SM FEW040
     FM252000 08013G18KT P6SM SCT045
     FM260200 07009KT P6SM SCT060
     FM260500 05005KT P6SM FEW050=

USA.gov is the U.S. government's official web portal to all federal, state and local government web resources and services.